sensor_id;sensor_type;location;lat;lon;timestamp;P1;durP1;ratioP1;P2;durP2;ratioP2
549;SDS011;20066;48.764;9.176;2023-09-18T00:00:44;8.33;;;4.43;;
549;SDS011;20066;48.764;9.176;2023-09-18T00:03:17;7.53;;;4.50;;
549;SDS011;20066;48.764;9.176;2023-09-18T00:05:45;7.90;;;4.50;;
549;SDS011;20066;48.764;9.176;2023-09-18T00:08:14;8.90;;;4.57;;
549;SDS011;20066;48.764;9.176;2023-09-18T00:10:42;11.40;;;4.90;;
549;SDS011;20066;48.764;9.176;2023-09-18T00:13:14;5.80;;;4.27;;
549;SDS011;20066;48.764;9.176;2023-09-18T00:15:42;9.30;;;4.83;;
549;SDS011;20066;48.764;9.176;2023-09-18T00:18:13;7.27;;;4.40;;
549;SDS011;20066;48.764;9.176;2023-09-18T00:20:41;9.27;;;4.93;;
549;SDS011;20066;48.764;9.176;2023-09-18T00:23:09;8.20;;;4.70;;
549;SDS011;20066;48.764;9.176;2023-09-18T00:25:37;10.10;;;4.20;;
549;SDS011;20066;48.764;9.176;2023-09-18T00:28:07;6.23;;;4.27;;
549;SDS011;20066;48.764;9.176;2023-09-18T00:30:37;6.40;;;4.23;;
549;SDS011;20066;48.764;9.176;2023-09-18T00:33:05;7.60;;;4.17;;
549;SDS011;20066;48.764;9.176;2023-09-18T00:35:34;12.10;;;4.80;;
549;SDS011;20066;48.764;9.176;2023-09-18T00:38:02;8.50;;;4.73;;
549;SDS011;20066;48.764;9.176;2023-09-18T00:40:30;7.60;;;5.07;;
549;SDS011;20066;48.764;9.176;2023-09-18T00:42:58;7.77;;;5.00;;
549;SDS011;20066;48.764;9.176;2023-09-18T00:45:26;9.53;;;4.80;;
549;SDS011;20066;48.764;9.176;2023-09-18T00:47:54;10.23;;;4.73;;
549;SDS011;20066;48.764;9.176;2023-09-18T00:50:22;9.23;;;4.33;;
549;SDS011;20066;48.764;9.176;2023-09-18T00:52:52;12.50;;;5.27;;
549;SDS011;20066;48.764;9.176;2023-09-18T00:55:20;8.97;;;4.33;;
549;SDS011;20066;48.764;9.176;2023-09-18T00:57:48;7.10;;;4.20;;
549;SDS011;20066;48.764;9.176;2023-09-18T01:00:17;8.90;;;4.77;;
549;SDS011;20066;48.764;9.176;2023-09-18T01:02:45;7.93;;;4.90;;
549;SDS011;20066;48.764;9.176;2023-09-18T01:05:13;7.00;;;4.37;;
549;SDS011;20066;48.764;9.176;2023-09-18T01:07:43;8.47;;;4.40;;
549;SDS011;20066;48.764;9.176;2023-09-18T01:10:12;6.90;;;4.07;;
549;SDS011;20066;48.764;9.176;2023-09-18T01:12:44;13.73;;;4.77;;
549;SDS011;20066;48.764;9.176;2023-09-18T01:15:17;6.60;;;4.10;;
549;SDS011;20066;48.764;9.176;2023-09-18T01:17:49;5.83;;;4.10;;
549;SDS011;20066;48.764;9.176;2023-09-18T01:20:17;6.70;;;3.93;;
549;SDS011;20066;48.764;9.176;2023-09-18T01:22:46;6.93;;;4.60;;
549;SDS011;20066;48.764;9.176;2023-09-18T01:25:16;7.07;;;4.10;;
549;SDS011;20066;48.764;9.176;2023-09-18T01:27:43;6.10;;;4.13;;
549;SDS011;20066;48.764;9.176;2023-09-18T01:30:11;7.90;;;4.77;;
549;SDS011;20066;48.764;9.176;2023-09-18T01:32:41;7.90;;;4.50;;
549;SDS011;20066;48.764;9.176;2023-09-18T01:35:11;7.93;;;4.20;;
549;SDS011;20066;48.764;9.176;2023-09-18T01:37:40;9.57;;;4.10;;
549;SDS011;20066;48.764;9.176;2023-09-18T01:40:10;8.30;;;3.43;;
549;SDS011;20066;48.764;9.176;2023-09-18T01:42:38;7.73;;;4.07;;
549;SDS011;20066;48.764;9.176;2023-09-18T01:45:08;8.83;;;4.23;;
549;SDS011;20066;48.764;9.176;2023-09-18T01:47:36;8.30;;;3.93;;
549;SDS011;20066;48.764;9.176;2023-09-18T01:50:04;10.13;;;3.77;;
549;SDS011;20066;48.764;9.176;2023-09-18T01:52:33;4.10;;;2.70;;
549;SDS011;20066;48.764;9.176;2023-09-18T01:55:02;6.50;;;3.80;;
549;SDS011;20066;48.764;9.176;2023-09-18T01:57:33;4.90;;;2.40;;
549;SDS011;20066;48.764;9.176;2023-09-18T02:00:00;7.57;;;3.57;;
549;SDS011;20066;48.764;9.176;2023-09-18T02:02:34;8.60;;;3.47;;
549;SDS011;20066;48.764;9.176;2023-09-18T02:05:11;5.03;;;2.60;;
549;SDS011;20066;48.764;9.176;2023-09-18T02:07:39;8.53;;;3.57;;
549;SDS011;20066;48.764;9.176;2023-09-18T02:10:07;11.63;;;3.50;;
549;SDS011;20066;48.764;9.176;2023-09-18T02:12:37;16.80;;;3.40;;
549;SDS011;20066;48.764;9.176;2023-09-18T02:15:05;13.27;;;3.90;;
549;SDS011;20066;48.764;9.176;2023-09-18T02:17:36;11.30;;;3.67;;
549;SDS011;20066;48.764;9.176;2023-09-18T02:20:05;18.23;;;4.47;;
549;SDS011;20066;48.764;9.176;2023-09-18T02:22:38;17.07;;;3.77;;
549;SDS011;20066;48.764;9.176;2023-09-18T02:25:07;11.53;;;3.87;;
549;SDS011;20066;48.764;9.176;2023-09-18T02:27:37;9.87;;;3.73;;
549;SDS011;20066;48.764;9.176;2023-09-18T02:30:05;14.23;;;3.30;;
549;SDS011;20066;48.764;9.176;2023-09-18T02:32:34;20.23;;;4.20;;
549;SDS011;20066;48.764;9.176;2023-09-18T02:35:03;12.80;;;3.80;;
549;SDS011;20066;48.764;9.176;2023-09-18T02:37:33;13.30;;;3.87;;
549;SDS011;20066;48.764;9.176;2023-09-18T02:40:01;9.80;;;3.93;;
549;SDS011;20066;48.764;9.176;2023-09-18T02:42:31;24.37;;;4.23;;
549;SDS011;20066;48.764;9.176;2023-09-18T02:45:00;11.27;;;3.27;;
549;SDS011;20066;48.764;9.176;2023-09-18T02:47:28;9.33;;;3.50;;
549;SDS011;20066;48.764;9.176;2023-09-18T02:49:56;19.67;;;3.47;;
549;SDS011;20066;48.764;9.176;2023-09-18T02:52:24;14.60;;;3.13;;
549;SDS011;20066;48.764;9.176;2023-09-18T02:54:51;26.03;;;3.67;;
549;SDS011;20066;48.764;9.176;2023-09-18T02:57:19;20.00;;;3.70;;
549;SDS011;20066;48.764;9.176;2023-09-18T02:59:47;14.40;;;2.53;;
549;SDS011;20066;48.764;9.176;2023-09-18T03:02:16;14.20;;;3.63;;
549;SDS011;20066;48.764;9.176;2023-09-18T03:04:44;11.13;;;3.93;;
549;SDS011;20066;48.764;9.176;2023-09-18T03:07:12;14.00;;;3.40;;
549;SDS011;20066;48.764;9.176;2023-09-18T03:09:41;18.60;;;3.60;;
549;SDS011;20066;48.764;9.176;2023-09-18T03:12:09;13.07;;;3.80;;
549;SDS011;20066;48.764;9.176;2023-09-18T03:14:37;13.53;;;3.03;;
549;SDS011;20066;48.764;9.176;2023-09-18T03:17:05;15.83;;;4.10;;
549;SDS011;20066;48.764;9.176;2023-09-18T03:19:34;17.37;;;2.80;;
549;SDS011;20066;48.764;9.176;2023-09-18T03:22:02;21.50;;;3.27;;
549;SDS011;20066;48.764;9.176;2023-09-18T03:24:30;13.90;;;3.60;;
549;SDS011;20066;48.764;9.176;2023-09-18T03:26:58;13.40;;;3.47;;
549;SDS011;20066;48.764;9.176;2023-09-18T03:29:25;13.70;;;3.50;;
549;SDS011;20066;48.764;9.176;2023-09-18T03:31:56;10.73;;;3.40;;
549;SDS011;20066;48.764;9.176;2023-09-18T03:34:25;9.87;;;3.43;;
549;SDS011;20066;48.764;9.176;2023-09-18T03:36:54;11.73;;;3.20;;
549;SDS011;20066;48.764;9.176;2023-09-18T03:39:23;10.00;;;3.60;;
549;SDS011;20066;48.764;9.176;2023-09-18T03:41:51;12.57;;;3.70;;
549;SDS011;20066;48.764;9.176;2023-09-18T03:44:19;15.63;;;3.77;;
549;SDS011;20066;48.764;9.176;2023-09-18T03:46:47;15.57;;;3.50;;
549;SDS011;20066;48.764;9.176;2023-09-18T03:49:15;11.10;;;4.43;;
549;SDS011;20066;48.764;9.176;2023-09-18T03:51:42;12.57;;;4.43;;
549;SDS011;20066;48.764;9.176;2023-09-18T03:54:12;16.87;;;4.00;;
549;SDS011;20066;48.764;9.176;2023-09-18T03:56:40;15.90;;;3.87;;
549;SDS011;20066;48.764;9.176;2023-09-18T03:59:08;10.53;;;3.50;;
549;SDS011;20066;48.764;9.176;2023-09-18T04:01:35;13.90;;;3.20;;
549;SDS011;20066;48.764;9.176;2023-09-18T04:04:04;10.87;;;2.93;;
549;SDS011;20066;48.764;9.176;2023-09-18T04:06:41;11.53;;;3.50;;
549;SDS011;20066;48.764;9.176;2023-09-18T04:09:12;9.80;;;3.10;;
549;SDS011;20066;48.764;9.176;2023-09-18T04:11:41;6.77;;;3.00;;
549;SDS011;20066;48.764;9.176;2023-09-18T04:14:09;15.30;;;3.40;;
549;SDS011;20066;48.764;9.176;2023-09-18T04:16:37;13.20;;;3.60;;
549;SDS011;20066;48.764;9.176;2023-09-18T04:19:08;9.97;;;3.90;;
549;SDS011;20066;48.764;9.176;2023-09-18T04:21:36;11.47;;;3.47;;
549;SDS011;20066;48.764;9.176;2023-09-18T04:24:04;11.37;;;3.03;;
549;SDS011;20066;48.764;9.176;2023-09-18T04:26:34;14.03;;;3.50;;
549;SDS011;20066;48.764;9.176;2023-09-18T04:29:01;16.70;;;3.60;;
549;SDS011;20066;48.764;9.176;2023-09-18T04:31:30;13.70;;;3.53;;
549;SDS011;20066;48.764;9.176;2023-09-18T04:33:58;12.70;;;3.80;;
549;SDS011;20066;48.764;9.176;2023-09-18T04:36:26;18.97;;;4.30;;
549;SDS011;20066;48.764;9.176;2023-09-18T04:38:54;13.30;;;3.30;;
549;SDS011;20066;48.764;9.176;2023-09-18T04:41:21;9.87;;;3.40;;
549;SDS011;20066;48.764;9.176;2023-09-18T04:43:51;14.07;;;3.63;;
549;SDS011;20066;48.764;9.176;2023-09-18T04:46:18;13.60;;;3.47;;
549;SDS011;20066;48.764;9.176;2023-09-18T04:48:46;11.40;;;3.53;;
549;SDS011;20066;48.764;9.176;2023-09-18T04:51:14;18.93;;;3.13;;
549;SDS011;20066;48.764;9.176;2023-09-18T04:53:42;16.40;;;3.50;;
549;SDS011;20066;48.764;9.176;2023-09-18T04:56:10;7.13;;;3.30;;
549;SDS011;20066;48.764;9.176;2023-09-18T04:58:39;10.90;;;3.67;;
549;SDS011;20066;48.764;9.176;2023-09-18T05:01:08;9.03;;;3.80;;
549;SDS011;20066;48.764;9.176;2023-09-18T05:03:37;9.77;;;4.30;;
549;SDS011;20066;48.764;9.176;2023-09-18T05:06:09;12.37;;;3.83;;
549;SDS011;20066;48.764;9.176;2023-09-18T05:08:37;11.93;;;3.83;;
549;SDS011;20066;48.764;9.176;2023-09-18T05:11:06;14.57;;;4.10;;
549;SDS011;20066;48.764;9.176;2023-09-18T05:13:34;11.20;;;4.33;;
549;SDS011;20066;48.764;9.176;2023-09-18T05:16:01;9.90;;;3.90;;
549;SDS011;20066;48.764;9.176;2023-09-18T05:18:31;13.13;;;4.07;;
549;SDS011;20066;48.764;9.176;2023-09-18T05:20:59;12.30;;;3.20;;
549;SDS011;20066;48.764;9.176;2023-09-18T05:23:29;24.27;;;4.20;;
549;SDS011;20066;48.764;9.176;2023-09-18T05:25:58;14.93;;;4.07;;
549;SDS011;20066;48.764;9.176;2023-09-18T05:28:26;10.00;;;3.50;;
549;SDS011;20066;48.764;9.176;2023-09-18T05:30:54;10.63;;;4.00;;
549;SDS011;20066;48.764;9.176;2023-09-18T05:33:21;8.40;;;3.10;;
549;SDS011;20066;48.764;9.176;2023-09-18T05:35:51;14.20;;;3.90;;
549;SDS011;20066;48.764;9.176;2023-09-18T05:38:19;18.03;;;3.53;;
549;SDS011;20066;48.764;9.176;2023-09-18T05:40:47;14.90;;;3.87;;
549;SDS011;20066;48.764;9.176;2023-09-18T05:43:14;15.77;;;4.40;;
549;SDS011;20066;48.764;9.176;2023-09-18T05:45:42;15.37;;;5.40;;
549;SDS011;20066;48.764;9.176;2023-09-18T05:48:10;19.03;;;5.17;;
549;SDS011;20066;48.764;9.176;2023-09-18T05:50:38;14.70;;;5.30;;
549;SDS011;20066;48.764;9.176;2023-09-18T05:53:09;12.57;;;4.40;;
549;SDS011;20066;48.764;9.176;2023-09-18T05:55:38;9.77;;;4.43;;
549;SDS011;20066;48.764;9.176;2023-09-18T05:58:06;11.23;;;4.10;;
549;SDS011;20066;48.764;9.176;2023-09-18T06:00:34;11.10;;;3.23;;
549;SDS011;20066;48.764;9.176;2023-09-18T06:03:03;18.53;;;4.27;;
549;SDS011;20066;48.764;9.176;2023-09-18T06:05:32;18.23;;;3.70;;
549;SDS011;20066;48.764;9.176;2023-09-18T06:08:01;16.23;;;4.20;;
549;SDS011;20066;48.764;9.176;2023-09-18T06:10:33;14.70;;;3.10;;
549;SDS011;20066;48.764;9.176;2023-09-18T06:13:09;11.50;;;3.50;;
549;SDS011;20066;48.764;9.176;2023-09-18T06:15:36;7.77;;;3.37;;
549;SDS011;20066;48.764;9.176;2023-09-18T06:18:04;12.10;;;4.00;;
549;SDS011;20066;48.764;9.176;2023-09-18T06:20:33;11.87;;;4.07;;
549;SDS011;20066;48.764;9.176;2023-09-18T06:23:01;11.53;;;3.40;;
549;SDS011;20066;48.764;9.176;2023-09-18T06:25:31;9.40;;;3.23;;
549;SDS011;20066;48.764;9.176;2023-09-18T06:27:59;23.63;;;3.97;;
549;SDS011;20066;48.764;9.176;2023-09-18T06:30:29;8.80;;;3.70;;
549;SDS011;20066;48.764;9.176;2023-09-18T06:32:59;18.37;;;5.00;;
549;SDS011;20066;48.764;9.176;2023-09-18T06:35:30;8.20;;;3.47;;
549;SDS011;20066;48.764;9.176;2023-09-18T06:37:58;14.43;;;3.60;;
549;SDS011;20066;48.764;9.176;2023-09-18T06:40:26;16.83;;;3.60;;
549;SDS011;20066;48.764;9.176;2023-09-18T06:42:59;8.70;;;3.20;;
549;SDS011;20066;48.764;9.176;2023-09-18T06:45:28;14.23;;;3.40;;
549;SDS011;20066;48.764;9.176;2023-09-18T06:47:57;11.90;;;4.10;;
549;SDS011;20066;48.764;9.176;2023-09-18T06:50:26;10.30;;;3.37;;
549;SDS011;20066;48.764;9.176;2023-09-18T06:52:54;29.53;;;4.80;;
549;SDS011;20066;48.764;9.176;2023-09-18T06:55:22;17.10;;;3.87;;
549;SDS011;20066;48.764;9.176;2023-09-18T06:57:50;14.37;;;3.57;;
549;SDS011;20066;48.764;9.176;2023-09-18T07:00:20;17.80;;;4.33;;
549;SDS011;20066;48.764;9.176;2023-09-18T07:02:48;8.83;;;3.33;;
549;SDS011;20066;48.764;9.176;2023-09-18T07:05:16;7.90;;;3.10;;
549;SDS011;20066;48.764;9.176;2023-09-18T07:07:44;9.77;;;3.00;;
549;SDS011;20066;48.764;9.176;2023-09-18T07:10:15;11.67;;;3.47;;
549;SDS011;20066;48.764;9.176;2023-09-18T07:12:43;5.40;;;2.63;;
549;SDS011;20066;48.764;9.176;2023-09-18T07:15:11;14.90;;;3.10;;
549;SDS011;20066;48.764;9.176;2023-09-18T07:17:40;10.70;;;3.40;;
549;SDS011;20066;48.764;9.176;2023-09-18T07:20:09;8.80;;;3.00;;
549;SDS011;20066;48.764;9.176;2023-09-18T07:22:45;10.43;;;3.03;;
549;SDS011;20066;48.764;9.176;2023-09-18T07:25:14;7.93;;;3.10;;
549;SDS011;20066;48.764;9.176;2023-09-18T07:27:42;7.40;;;2.57;;
549;SDS011;20066;48.764;9.176;2023-09-18T07:30:11;9.33;;;2.73;;
549;SDS011;20066;48.764;9.176;2023-09-18T07:32:43;7.67;;;2.30;;
549;SDS011;20066;48.764;9.176;2023-09-18T07:35:12;3.57;;;2.00;;
549;SDS011;20066;48.764;9.176;2023-09-18T07:37:41;14.60;;;2.23;;
549;SDS011;20066;48.764;9.176;2023-09-18T07:40:10;5.80;;;2.40;;
549;SDS011;20066;48.764;9.176;2023-09-18T07:42:38;5.07;;;2.10;;
549;SDS011;20066;48.764;9.176;2023-09-18T07:45:07;8.27;;;1.43;;
549;SDS011;20066;48.764;9.176;2023-09-18T07:47:35;6.00;;;1.90;;
549;SDS011;20066;48.764;9.176;2023-09-18T07:50:07;9.50;;;2.07;;
549;SDS011;20066;48.764;9.176;2023-09-18T07:52:35;9.50;;;2.47;;
549;SDS011;20066;48.764;9.176;2023-09-18T07:55:04;13.00;;;2.67;;
549;SDS011;20066;48.764;9.176;2023-09-18T07:57:33;4.70;;;2.50;;
549;SDS011;20066;48.764;9.176;2023-09-18T08:00:01;12.60;;;2.40;;
549;SDS011;20066;48.764;9.176;2023-09-18T08:02:33;8.03;;;2.80;;
549;SDS011;20066;48.764;9.176;2023-09-18T08:05:02;11.20;;;3.90;;
549;SDS011;20066;48.764;9.176;2023-09-18T08:07:32;2.60;;;1.43;;
549;SDS011;20066;48.764;9.176;2023-09-18T08:10:01;6.73;;;3.40;;
549;SDS011;20066;48.764;9.176;2023-09-18T08:12:32;7.33;;;1.63;;
549;SDS011;20066;48.764;9.176;2023-09-18T08:15:00;4.90;;;1.80;;
549;SDS011;20066;48.764;9.176;2023-09-18T08:17:29;5.17;;;1.70;;
549;SDS011;20066;48.764;9.176;2023-09-18T08:19:57;3.50;;;2.10;;
549;SDS011;20066;48.764;9.176;2023-09-18T08:22:25;5.47;;;2.50;;
549;SDS011;20066;48.764;9.176;2023-09-18T08:24:55;3.83;;;2.37;;
549;SDS011;20066;48.764;9.176;2023-09-18T08:27:23;7.07;;;1.80;;
549;SDS011;20066;48.764;9.176;2023-09-18T08:29:52;4.13;;;2.07;;
549;SDS011;20066;48.764;9.176;2023-09-18T08:32:19;8.97;;;1.73;;
549;SDS011;20066;48.764;9.176;2023-09-18T08:34:47;5.47;;;2.17;;
549;SDS011;20066;48.764;9.176;2023-09-18T08:37:15;6.13;;;2.03;;
549;SDS011;20066;48.764;9.176;2023-09-18T08:39:43;4.60;;;1.77;;
549;SDS011;20066;48.764;9.176;2023-09-18T08:42:12;4.50;;;1.70;;
549;SDS011;20066;48.764;9.176;2023-09-18T08:44:42;3.80;;;2.53;;
549;SDS011;20066;48.764;9.176;2023-09-18T08:47:15;6.40;;;1.90;;
549;SDS011;20066;48.764;9.176;2023-09-18T08:49:45;3.87;;;1.93;;
549;SDS011;20066;48.764;9.176;2023-09-18T08:52:15;5.43;;;1.80;;
549;SDS011;20066;48.764;9.176;2023-09-18T08:54:44;6.10;;;1.80;;
549;SDS011;20066;48.764;9.176;2023-09-18T08:57:14;10.43;;;2.10;;
549;SDS011;20066;48.764;9.176;2023-09-18T08:59:42;5.93;;;2.43;;
549;SDS011;20066;48.764;9.176;2023-09-18T09:02:12;10.33;;;2.20;;
549;SDS011;20066;48.764;9.176;2023-09-18T09:04:40;6.10;;;1.60;;
549;SDS011;20066;48.764;9.176;2023-09-18T09:07:09;5.37;;;1.63;;
549;SDS011;20066;48.764;9.176;2023-09-18T09:09:36;3.87;;;1.73;;
549;SDS011;20066;48.764;9.176;2023-09-18T09:12:05;5.57;;;2.10;;
549;SDS011;20066;48.764;9.176;2023-09-18T09:14:35;2.27;;;1.50;;
549;SDS011;20066;48.764;9.176;2023-09-18T09:17:03;4.77;;;2.10;;
549;SDS011;20066;48.764;9.176;2023-09-18T09:19:31;5.13;;;2.00;;
549;SDS011;20066;48.764;9.176;2023-09-18T09:22:03;6.20;;;2.27;;
549;SDS011;20066;48.764;9.176;2023-09-18T09:24:36;6.07;;;2.33;;
549;SDS011;20066;48.764;9.176;2023-09-18T09:27:05;6.30;;;2.20;;
549;SDS011;20066;48.764;9.176;2023-09-18T09:29:41;5.03;;;1.90;;
549;SDS011;20066;48.764;9.176;2023-09-18T09:32:12;4.10;;;1.70;;
549;SDS011;20066;48.764;9.176;2023-09-18T09:34:42;6.60;;;1.90;;
549;SDS011;20066;48.764;9.176;2023-09-18T09:37:11;11.33;;;2.00;;
549;SDS011;20066;48.764;9.176;2023-09-18T09:39:46;5.30;;;1.97;;
549;SDS011;20066;48.764;9.176;2023-09-18T09:42:16;6.00;;;2.13;;
549;SDS011;20066;48.764;9.176;2023-09-18T09:45:01;4.93;;;2.23;;
549;SDS011;20066;48.764;9.176;2023-09-18T09:47:32;3.83;;;1.83;;
549;SDS011;20066;48.764;9.176;2023-09-18T09:50:05;9.60;;;3.67;;
549;SDS011;20066;48.764;9.176;2023-09-18T09:52:39;7.10;;;6.70;;
549;SDS011;20066;48.764;9.176;2023-09-18T09:55:26;7.03;;;6.53;;
549;SDS011;20066;48.764;9.176;2023-09-18T09:57:56;6.80;;;6.30;;
549;SDS011;20066;48.764;9.176;2023-09-18T10:00:31;11.13;;;6.47;;
549;SDS011;20066;48.764;9.176;2023-09-18T10:03:03;10.57;;;5.53;;
549;SDS011;20066;48.764;9.176;2023-09-18T10:05:33;7.27;;;5.47;;
549;SDS011;20066;48.764;9.176;2023-09-18T10:08:03;11.50;;;6.10;;
549;SDS011;20066;48.764;9.176;2023-09-18T10:10:35;6.10;;;5.80;;
549;SDS011;20066;48.764;9.176;2023-09-18T10:13:07;7.40;;;5.73;;
549;SDS011;20066;48.764;9.176;2023-09-18T10:15:39;6.70;;;6.30;;
549;SDS011;20066;48.764;9.176;2023-09-18T10:18:17;6.67;;;5.43;;
549;SDS011;20066;48.764;9.176;2023-09-18T10:20:50;9.97;;;9.17;;
549;SDS011;20066;48.764;9.176;2023-09-18T10:23:26;11.40;;;8.60;;
549;SDS011;20066;48.764;9.176;2023-09-18T10:26:06;10.00;;;9.50;;
549;SDS011;20066;48.764;9.176;2023-09-18T10:28:38;3.77;;;2.37;;
549;SDS011;20066;48.764;9.176;2023-09-18T10:31:08;7.23;;;2.07;;
549;SDS011;20066;48.764;9.176;2023-09-18T10:33:38;9.47;;;2.10;;
549;SDS011;20066;48.764;9.176;2023-09-18T10:36:07;4.53;;;2.07;;
549;SDS011;20066;48.764;9.176;2023-09-18T10:38:37;11.70;;;2.40;;
549;SDS011;20066;48.764;9.176;2023-09-18T10:41:06;4.20;;;1.97;;
549;SDS011;20066;48.764;9.176;2023-09-18T10:43:36;9.73;;;2.97;;
549;SDS011;20066;48.764;9.176;2023-09-18T10:46:04;3.00;;;1.87;;
549;SDS011;20066;48.764;9.176;2023-09-18T10:48:34;4.17;;;2.17;;
549;SDS011;20066;48.764;9.176;2023-09-18T10:51:02;6.53;;;2.30;;
549;SDS011;20066;48.764;9.176;2023-09-18T10:53:32;4.53;;;2.30;;
549;SDS011;20066;48.764;9.176;2023-09-18T10:56:00;6.20;;;2.40;;
549;SDS011;20066;48.764;9.176;2023-09-18T10:58:30;4.40;;;2.07;;
549;SDS011;20066;48.764;9.176;2023-09-18T11:01:02;6.43;;;1.87;;
549;SDS011;20066;48.764;9.176;2023-09-18T11:03:34;3.80;;;2.10;;
549;SDS011;20066;48.764;9.176;2023-09-18T11:06:02;5.30;;;1.83;;
549;SDS011;20066;48.764;9.176;2023-09-18T11:08:32;4.47;;;1.63;;
549;SDS011;20066;48.764;9.176;2023-09-18T11:11:03;6.27;;;2.20;;
549;SDS011;20066;48.764;9.176;2023-09-18T11:13:37;4.00;;;1.93;;
549;SDS011;20066;48.764;9.176;2023-09-18T11:16:14;6.27;;;2.10;;
549;SDS011;20066;48.764;9.176;2023-09-18T11:18:51;5.80;;;2.33;;
549;SDS011;20066;48.764;9.176;2023-09-18T11:21:24;8.50;;;2.43;;
549;SDS011;20066;48.764;9.176;2023-09-18T11:23:57;4.00;;;2.40;;
549;SDS011;20066;48.764;9.176;2023-09-18T11:26:28;4.80;;;2.30;;
549;SDS011;20066;48.764;9.176;2023-09-18T11:28:58;6.47;;;2.23;;
549;SDS011;20066;48.764;9.176;2023-09-18T11:31:44;4.10;;;2.40;;
549;SDS011;20066;48.764;9.176;2023-09-18T11:34:16;3.83;;;2.00;;
549;SDS011;20066;48.764;9.176;2023-09-18T11:36:48;3.90;;;2.30;;
549;SDS011;20066;48.764;9.176;2023-09-18T11:42:07;3.90;;;1.80;;
549;SDS011;20066;48.764;9.176;2023-09-18T11:44:37;4.20;;;1.67;;
549;SDS011;20066;48.764;9.176;2023-09-18T11:47:09;5.17;;;2.23;;
549;SDS011;20066;48.764;9.176;2023-09-18T11:49:49;4.50;;;2.57;;
549;SDS011;20066;48.764;9.176;2023-09-18T11:52:22;5.90;;;2.33;;
549;SDS011;20066;48.764;9.176;2023-09-18T11:54:51;5.93;;;2.33;;
549;SDS011;20066;48.764;9.176;2023-09-18T11:57:20;6.00;;;1.70;;
549;SDS011;20066;48.764;9.176;2023-09-18T11:59:48;6.60;;;1.80;;
549;SDS011;20066;48.764;9.176;2023-09-18T12:02:24;3.60;;;1.70;;
549;SDS011;20066;48.764;9.176;2023-09-18T12:04:56;5.47;;;2.07;;
549;SDS011;20066;48.764;9.176;2023-09-18T12:07:24;4.83;;;1.97;;
549;SDS011;20066;48.764;9.176;2023-09-18T12:09:52;6.87;;;2.63;;
549;SDS011;20066;48.764;9.176;2023-09-18T12:12:21;5.83;;;2.07;;
549;SDS011;20066;48.764;9.176;2023-09-18T12:14:49;4.83;;;2.17;;
549;SDS011;20066;48.764;9.176;2023-09-18T12:17:20;4.00;;;1.97;;
549;SDS011;20066;48.764;9.176;2023-09-18T12:19:52;4.07;;;2.10;;
549;SDS011;20066;48.764;9.176;2023-09-18T12:22:26;8.10;;;2.23;;
549;SDS011;20066;48.764;9.176;2023-09-18T12:25:07;6.10;;;2.23;;
549;SDS011;20066;48.764;9.176;2023-09-18T12:27:41;5.33;;;2.30;;
549;SDS011;20066;48.764;9.176;2023-09-18T12:30:10;7.60;;;2.33;;
549;SDS011;20066;48.764;9.176;2023-09-18T12:32:47;9.70;;;2.77;;
549;SDS011;20066;48.764;9.176;2023-09-18T12:35:16;4.20;;;1.80;;
549;SDS011;20066;48.764;9.176;2023-09-18T12:37:46;8.70;;;2.40;;
549;SDS011;20066;48.764;9.176;2023-09-18T12:40:21;6.33;;;2.20;;
549;SDS011;20066;48.764;9.176;2023-09-18T12:42:50;5.77;;;1.60;;
549;SDS011;20066;48.764;9.176;2023-09-18T12:45:20;6.10;;;1.90;;
549;SDS011;20066;48.764;9.176;2023-09-18T12:47:48;7.70;;;1.80;;
549;SDS011;20066;48.764;9.176;2023-09-18T12:50:17;4.80;;;2.07;;
549;SDS011;20066;48.764;9.176;2023-09-18T12:52:46;6.97;;;2.13;;
549;SDS011;20066;48.764;9.176;2023-09-18T12:55:24;5.00;;;1.80;;
549;SDS011;20066;48.764;9.176;2023-09-18T12:57:54;6.60;;;2.50;;
549;SDS011;20066;48.764;9.176;2023-09-18T13:00:22;7.00;;;1.70;;
549;SDS011;20066;48.764;9.176;2023-09-18T13:02:53;4.93;;;2.03;;
549;SDS011;20066;48.764;9.176;2023-09-18T13:05:23;9.37;;;2.13;;
549;SDS011;20066;48.764;9.176;2023-09-18T13:07:54;5.87;;;2.20;;
549;SDS011;20066;48.764;9.176;2023-09-18T13:10:22;11.93;;;1.90;;
549;SDS011;20066;48.764;9.176;2023-09-18T13:12:54;4.27;;;1.70;;
549;SDS011;20066;48.764;9.176;2023-09-18T13:15:26;3.27;;;1.63;;
549;SDS011;20066;48.764;9.176;2023-09-18T13:17:55;6.53;;;2.70;;
549;SDS011;20066;48.764;9.176;2023-09-18T13:20:25;5.20;;;1.43;;
549;SDS011;20066;48.764;9.176;2023-09-18T13:22:57;5.50;;;2.03;;
549;SDS011;20066;48.764;9.176;2023-09-18T13:25:28;5.87;;;1.97;;
549;SDS011;20066;48.764;9.176;2023-09-18T13:27:58;6.33;;;1.80;;
549;SDS011;20066;48.764;9.176;2023-09-18T13:30:26;7.10;;;1.83;;
549;SDS011;20066;48.764;9.176;2023-09-18T13:33:01;6.60;;;2.47;;
549;SDS011;20066;48.764;9.176;2023-09-18T13:35:30;6.47;;;1.90;;
549;SDS011;20066;48.764;9.176;2023-09-18T13:37:59;6.70;;;1.73;;
549;SDS011;20066;48.764;9.176;2023-09-18T13:40:27;4.33;;;1.97;;
549;SDS011;20066;48.764;9.176;2023-09-18T13:42:55;3.00;;;1.50;;
549;SDS011;20066;48.764;9.176;2023-09-18T13:45:23;5.70;;;1.83;;
549;SDS011;20066;48.764;9.176;2023-09-18T13:47:51;4.53;;;1.87;;
549;SDS011;20066;48.764;9.176;2023-09-18T13:50:23;4.03;;;2.10;;
549;SDS011;20066;48.764;9.176;2023-09-18T13:53:04;4.23;;;1.40;;
549;SDS011;20066;48.764;9.176;2023-09-18T13:55:33;7.27;;;1.90;;
549;SDS011;20066;48.764;9.176;2023-09-18T13:58:03;11.73;;;2.30;;
549;SDS011;20066;48.764;9.176;2023-09-18T14:00:31;7.13;;;2.00;;
549;SDS011;20066;48.764;9.176;2023-09-18T14:03:00;5.17;;;1.60;;
549;SDS011;20066;48.764;9.176;2023-09-18T14:05:29;9.20;;;1.73;;
549;SDS011;20066;48.764;9.176;2023-09-18T14:08:00;4.07;;;1.70;;
549;SDS011;20066;48.764;9.176;2023-09-18T14:10:31;3.47;;;2.10;;
549;SDS011;20066;48.764;9.176;2023-09-18T14:12:59;5.37;;;1.93;;
549;SDS011;20066;48.764;9.176;2023-09-18T14:15:27;3.87;;;2.10;;
549;SDS011;20066;48.764;9.176;2023-09-18T14:17:55;2.70;;;1.83;;
549;SDS011;20066;48.764;9.176;2023-09-18T14:20:25;4.10;;;2.20;;
549;SDS011;20066;48.764;9.176;2023-09-18T14:22:53;7.27;;;2.20;;
549;SDS011;20066;48.764;9.176;2023-09-18T14:25:21;5.13;;;1.83;;
549;SDS011;20066;48.764;9.176;2023-09-18T14:27:52;6.60;;;2.30;;
549;SDS011;20066;48.764;9.176;2023-09-18T14:30:20;7.97;;;4.77;;
549;SDS011;20066;48.764;9.176;2023-09-18T14:32:52;8.30;;;6.43;;
549;SDS011;20066;48.764;9.176;2023-09-18T14:35:20;4.83;;;4.53;;
549;SDS011;20066;48.764;9.176;2023-09-18T14:37:49;10.00;;;5.03;;
549;SDS011;20066;48.764;9.176;2023-09-18T14:40:17;11.30;;;5.23;;
549;SDS011;20066;48.764;9.176;2023-09-18T14:42:47;26.97;;;5.40;;
549;SDS011;20066;48.764;9.176;2023-09-18T14:45:18;7.37;;;4.80;;
549;SDS011;20066;48.764;9.176;2023-09-18T14:47:46;7.20;;;6.80;;
549;SDS011;20066;48.764;9.176;2023-09-18T14:50:14;5.70;;;5.13;;
549;SDS011;20066;48.764;9.176;2023-09-18T14:52:42;7.33;;;5.03;;
549;SDS011;20066;48.764;9.176;2023-09-18T14:55:10;5.93;;;5.60;;
549;SDS011;20066;48.764;9.176;2023-09-18T14:57:39;5.97;;;4.57;;
549;SDS011;20066;48.764;9.176;2023-09-18T15:00:07;6.60;;;5.13;;
549;SDS011;20066;48.764;9.176;2023-09-18T15:02:40;4.50;;;4.20;;
549;SDS011;20066;48.764;9.176;2023-09-18T15:05:09;5.10;;;4.80;;
549;SDS011;20066;48.764;9.176;2023-09-18T15:07:39;6.67;;;5.20;;
549;SDS011;20066;48.764;9.176;2023-09-18T15:10:07;7.10;;;6.70;;
549;SDS011;20066;48.764;9.176;2023-09-18T15:12:36;6.07;;;5.77;;
549;SDS011;20066;48.764;9.176;2023-09-18T15:15:07;4.97;;;4.67;;
549;SDS011;20066;48.764;9.176;2023-09-18T15:17:36;6.33;;;5.20;;
549;SDS011;20066;48.764;9.176;2023-09-18T15:20:07;7.33;;;6.93;;
549;SDS011;20066;48.764;9.176;2023-09-18T15:22:38;6.90;;;6.20;;
549;SDS011;20066;48.764;9.176;2023-09-18T15:25:06;6.40;;;5.77;;
549;SDS011;20066;48.764;9.176;2023-09-18T15:27:35;7.03;;;5.50;;